createdAt,value
2018-10-18T00:01:32.100Z,12.60
2018-10-18T00:04:00.091Z,12.70
2018-10-18T00:06:28.039Z,12.70
2018-10-18T00:08:56.015Z,12.50
2018-10-18T00:11:24.372Z,12.60
2018-10-18T00:13:52.441Z,12.50
2018-10-18T00:16:20.411Z,12.50
2018-10-18T00:18:52.127Z,12.40
2018-10-18T00:21:20.133Z,12.40
2018-10-18T00:23:48.232Z,12.40
2018-10-18T00:26:16.355Z,12.50
2018-10-18T00:28:44.453Z,12.50
2018-10-18T00:31:12.419Z,12.30
2018-10-18T00:33:40.403Z,12.50
2018-10-18T00:36:08.454Z,12.50
2018-10-18T00:38:36.444Z,12.40
2018-10-18T00:41:04.843Z,12.40
2018-10-18T00:43:32.791Z,12.10
2018-10-18T00:46:00.789Z,11.90
2018-10-18T00:48:29.123Z,12.00
2018-10-18T00:50:57.121Z,12.20
2018-10-18T00:53:25.116Z,12.10
2018-10-18T00:55:53.143Z,12.20
2018-10-18T00:58:22.159Z,12.20
2018-10-18T01:00:50.199Z,12.40
2018-10-18T01:03:18.166Z,12.20
2018-10-18T01:05:46.391Z,12.10
2018-10-18T01:08:14.510Z,12.20
2018-10-18T01:10:42.460Z,12.20
2018-10-18T01:13:10.475Z,12.30
2018-10-18T01:15:38.451Z,12.30
2018-10-18T01:18:06.863Z,12.10
2018-10-18T01:20:34.779Z,12.10
2018-10-18T01:23:02.744Z,12.20
2018-10-18T01:25:30.726Z,12.30
2018-10-18T01:27:58.744Z,12.30
2018-10-18T01:30:26.697Z,12.20
2018-10-18T01:32:54.656Z,12.00
2018-10-18T01:35:22.633Z,11.90
2018-10-18T01:37:50.587Z,12.00
2018-10-18T01:40:18.639Z,12.10
2018-10-18T01:42:46.618Z,12.10
2018-10-18T01:45:14.618Z,12.10
2018-10-18T01:47:42.599Z,12.10
2018-10-18T01:50:14.188Z,12.10
2018-10-18T01:52:42.059Z,11.90
2018-10-18T01:55:10.056Z,11.90
2018-10-18T01:57:38.099Z,12.00
2018-10-18T02:00:06.656Z,12.00
2018-10-18T02:02:34.624Z,11.80
2018-10-18T02:05:02.591Z,11.60
2018-10-18T02:07:30.572Z,11.60
2018-10-18T02:09:58.566Z,11.80
2018-10-18T02:12:26.551Z,11.90
2018-10-18T02:14:54.506Z,11.90
2018-10-18T02:17:22.536Z,12.00
2018-10-18T02:19:50.600Z,12.00
2018-10-18T02:22:18.590Z,11.60
2018-10-18T02:24:46.674Z,11.80
2018-10-18T02:27:14.666Z,11.90
2018-10-18T02:29:42.649Z,12.00
2018-10-18T02:32:10.636Z,12.00
2018-10-18T02:34:38.675Z,11.80
2018-10-18T02:37:06.666Z,11.90
2018-10-18T02:39:34.623Z,11.90
2018-10-18T02:42:02.638Z,11.90
2018-10-18T02:44:30.632Z,11.70
2018-10-18T02:46:58.627Z,11.60
2018-10-18T02:49:26.819Z,11.70
2018-10-18T02:51:58.081Z,11.80
2018-10-18T02:54:26.058Z,11.80
2018-10-18T02:56:54.044Z,11.90
2018-10-18T02:59:22.018Z,11.80
2018-10-18T03:01:50.006Z,11.80
2018-10-18T03:04:18.003Z,11.70
2018-10-18T03:06:49.575Z,11.30
2018-10-18T03:09:17.550Z,11.50
2018-10-18T03:11:45.508Z,11.40
2018-10-18T03:14:13.520Z,11.60
2018-10-18T03:16:41.498Z,11.70
2018-10-18T03:19:09.514Z,11.60
2018-10-18T03:24:11.080Z,11.40
2018-10-18T03:26:38.967Z,11.20
2018-10-18T03:29:06.919Z,11.00
2018-10-18T03:31:34.939Z,11.00
2018-10-18T03:34:02.958Z,11.20
2018-10-18T03:36:30.952Z,11.40
2018-10-18T03:38:59.602Z,11.50
2018-10-18T03:41:27.731Z,11.30
2018-10-18T03:43:55.642Z,11.30
2018-10-18T03:46:23.652Z,11.40
2018-10-18T03:48:51.629Z,11.40
2018-10-18T03:51:19.595Z,11.40
2018-10-18T03:53:47.582Z,11.40
2018-10-18T03:56:15.927Z,11.60
2018-10-18T03:58:43.904Z,11.00
2018-10-18T04:01:11.863Z,10.90
2018-10-18T04:03:39.835Z,11.10
2018-10-18T04:06:07.840Z,11.30
2018-10-18T04:08:35.775Z,11.40
2018-10-18T04:11:03.785Z,11.40
2018-10-18T04:13:31.783Z,11.50
2018-10-18T04:15:59.763Z,11.60
2018-10-18T04:18:27.751Z,11.50
2018-10-18T04:20:55.676Z,11.30
2018-10-18T04:23:29.071Z,11.10
2018-10-18T04:25:57.291Z,11.10
2018-10-18T04:28:25.259Z,11.10
2018-10-18T04:30:53.207Z,11.20
2018-10-18T04:33:21.165Z,11.10
2018-10-18T04:35:49.264Z,11.10
2018-10-18T04:38:21.052Z,11.00
2018-10-18T04:40:49.284Z,11.00
2018-10-18T04:43:17.228Z,11.00
2018-10-18T04:45:45.202Z,11.10
2018-10-18T04:48:13.676Z,11.00
2018-10-18T04:50:41.677Z,11.00
2018-10-18T04:53:13.464Z,11.10
2018-10-18T04:55:41.433Z,11.20
2018-10-18T04:58:09.410Z,11.00
2018-10-18T05:00:37.395Z,10.90
2018-10-18T05:03:05.356Z,10.80
2018-10-18T05:05:54.028Z,10.70
2018-10-18T05:08:23.324Z,10.90
2018-10-18T05:10:51.292Z,10.80
2018-10-18T05:13:19.451Z,10.90
2018-10-18T05:15:47.336Z,11.00
2018-10-18T05:18:15.452Z,11.20
2018-10-18T05:20:43.443Z,10.90
2018-10-18T05:23:11.402Z,10.70
2018-10-18T05:25:39.452Z,10.60
2018-10-18T05:28:07.413Z,10.70
2018-10-18T05:30:35.356Z,10.80
2018-10-18T05:33:03.336Z,10.80
2018-10-18T05:35:31.317Z,10.60
2018-10-18T05:37:59.243Z,10.60
2018-10-18T05:40:27.222Z,10.50
2018-10-18T05:42:55.261Z,10.80
2018-10-18T05:45:23.339Z,11.00
2018-10-18T05:47:51.316Z,11.00
2018-10-18T05:50:19.280Z,10.80
2018-10-18T05:52:47.273Z,10.70
2018-10-18T05:55:15.315Z,10.80
2018-10-18T05:57:43.215Z,10.60
2018-10-18T06:00:13.404Z,10.40
2018-10-18T06:02:41.699Z,10.40
2018-10-18T06:05:10.652Z,10.40
2018-10-18T06:07:38.687Z,10.30
2018-10-18T06:10:18.283Z,10.30
2018-10-18T06:12:46.491Z,10.40
2018-10-18T06:15:14.455Z,10.60
2018-10-18T06:17:42.836Z,10.80
2018-10-18T06:20:11.055Z,10.80
2018-10-18T06:22:39.882Z,10.70
2018-10-18T06:25:08.438Z,10.80
2018-10-18T06:27:36.715Z,10.90
2018-10-18T06:30:06.112Z,10.90
2018-10-18T06:32:34.397Z,11.10
2018-10-18T06:35:02.532Z,11.00
2018-10-18T06:37:30.649Z,11.00
2018-10-18T06:40:02.232Z,11.10
2018-10-18T06:42:30.444Z,11.20
2018-10-18T06:44:58.633Z,11.20
2018-10-18T06:47:26.890Z,11.30
2018-10-18T06:49:55.174Z,11.40
2018-10-18T06:52:23.508Z,11.30
2018-10-18T06:54:51.712Z,11.40
2018-10-18T06:57:19.860Z,11.20
2018-10-18T06:59:48.347Z,11.40
2018-10-18T07:02:16.571Z,11.40
2018-10-18T07:04:44.791Z,11.60
2018-10-18T07:07:12.992Z,11.70
2018-10-18T07:09:41.132Z,11.60
2018-10-18T07:12:09.377Z,11.80
2018-10-18T07:14:37.508Z,11.80
2018-10-18T07:17:06.622Z,11.90
2018-10-18T07:19:34.833Z,11.90
2018-10-18T07:22:03.108Z,12.00
2018-10-18T07:24:31.274Z,12.00
2018-10-18T07:26:59.473Z,12.10
2018-10-18T07:29:28.109Z,12.10
2018-10-18T07:31:56.278Z,12.20
2018-10-18T07:34:24.512Z,12.20
2018-10-18T07:36:52.688Z,12.30
2018-10-18T07:39:20.851Z,12.40
2018-10-18T07:41:49.117Z,12.40
2018-10-18T07:44:17.265Z,12.30
2018-10-18T07:46:45.474Z,12.30
2018-10-18T07:49:14.049Z,12.40
2018-10-18T07:51:42.195Z,12.50
2018-10-18T07:54:10.342Z,12.50
2018-10-18T07:56:38.498Z,12.60
2018-10-18T07:59:06.690Z,12.60
2018-10-18T08:01:34.825Z,12.70
2018-10-18T08:04:03.067Z,12.60
2018-10-18T08:06:31.231Z,12.60
2018-10-18T08:08:59.377Z,12.50
2018-10-18T08:11:31.341Z,12.50
2018-10-18T08:13:59.532Z,12.60
2018-10-18T08:16:27.685Z,12.60
2018-10-18T08:18:55.859Z,12.70
2018-10-18T08:21:24.025Z,12.70
2018-10-18T08:23:52.199Z,12.70
2018-10-18T08:26:20.360Z,12.70
2018-10-18T08:28:48.497Z,12.90
2018-10-18T08:31:16.747Z,12.90
2018-10-18T08:33:44.852Z,13.00
2018-10-18T08:36:13.046Z,13.10
2018-10-18T08:38:41.213Z,13.10
2018-10-18T08:41:09.370Z,13.20
2018-10-18T08:43:37.647Z,13.30
2018-10-18T08:46:05.851Z,13.40
2018-10-18T08:48:34.023Z,13.40
2018-10-18T08:51:02.159Z,13.40
2018-10-18T08:53:30.367Z,13.40
2018-10-18T08:55:58.603Z,13.40
2018-10-18T08:58:26.776Z,13.50
2018-10-18T09:00:54.903Z,13.50
2018-10-18T09:03:23.101Z,13.50
2018-10-18T09:05:51.344Z,13.60
2018-10-18T09:08:19.581Z,13.70
2018-10-18T09:10:47.753Z,13.90
2018-10-18T09:13:15.982Z,13.90
2018-10-18T09:15:44.061Z,14.00
2018-10-18T09:18:12.208Z,14.00
2018-10-18T09:20:40.392Z,14.00
2018-10-18T09:23:08.557Z,13.90
2018-10-18T09:25:36.685Z,14.00
2018-10-18T09:28:08.642Z,14.00
2018-10-18T09:30:36.797Z,14.00
2018-10-18T09:33:04.971Z,14.10
2018-10-18T09:35:33.125Z,14.10
2018-10-18T09:38:01.268Z,14.20
2018-10-18T09:40:29.378Z,14.20
2018-10-18T09:43:01.433Z,14.30
2018-10-18T09:45:29.602Z,14.30
2018-10-18T09:47:57.761Z,14.30
2018-10-18T09:50:26.032Z,14.40
2018-10-18T09:52:54.214Z,14.40
2018-10-18T09:55:22.374Z,14.50
2018-10-18T09:57:50.583Z,14.50
2018-10-18T10:00:24.267Z,14.50
2018-10-18T10:02:57.835Z,14.50
2018-10-18T10:05:26.019Z,14.50
2018-10-18T10:07:54.192Z,14.60
2018-10-18T10:10:22.383Z,14.60
2018-10-18T10:12:50.489Z,14.70
2018-10-18T10:15:18.686Z,14.60
2018-10-18T10:17:46.981Z,14.70
2018-10-18T10:20:15.067Z,14.70
2018-10-18T10:22:44.245Z,14.70
2018-10-18T10:25:12.510Z,14.80
2018-10-18T10:27:40.617Z,14.90
2018-10-18T10:30:12.897Z,15.00
2018-10-18T10:32:41.112Z,15.00
2018-10-18T10:35:09.356Z,15.00
2018-10-18T10:37:37.452Z,15.00
2018-10-18T10:40:06.547Z,15.10
2018-10-18T10:42:34.711Z,15.10
2018-10-18T10:45:02.984Z,15.10
2018-10-18T10:47:31.162Z,15.20
2018-10-18T10:49:59.398Z,15.30
2018-10-18T10:52:27.477Z,15.40
2018-10-18T10:54:55.659Z,15.50
2018-10-18T10:57:23.816Z,15.60
2018-10-18T10:59:52.058Z,15.50
2018-10-18T11:02:20.220Z,15.50
2018-10-18T11:04:48.376Z,15.40
2018-10-18T11:07:16.495Z,15.30
2018-10-18T11:09:44.681Z,15.40
2018-10-18T11:12:12.860Z,15.30
2018-10-18T11:14:41.004Z,15.30
2018-10-18T11:17:09.424Z,15.30
2018-10-18T11:19:37.495Z,15.30
2018-10-18T11:22:06.315Z,15.20
2018-10-18T11:24:35.115Z,15.00
2018-10-18T11:27:03.510Z,14.90
2018-10-18T11:29:35.083Z,14.80
2018-10-18T11:32:03.821Z,14.70
2018-10-18T11:34:31.921Z,14.70
2018-10-18T11:36:59.966Z,14.80
2018-10-18T11:39:28.141Z,14.80
2018-10-18T11:41:56.370Z,14.70
2018-10-18T11:44:29.911Z,14.70
2018-10-18T11:46:58.103Z,14.80
2018-10-18T11:49:26.311Z,14.80
2018-10-18T11:51:54.593Z,14.70
2018-10-18T11:54:22.690Z,14.80
2018-10-18T11:56:50.948Z,14.70
2018-10-18T11:59:19.118Z,14.80
2018-10-18T12:01:47.695Z,14.90
2018-10-18T12:04:15.970Z,15.00
2018-10-18T12:06:44.109Z,14.90
2018-10-18T12:09:12.488Z,14.90
2018-10-18T12:11:40.696Z,14.80
2018-10-18T12:14:09.328Z,14.80
2018-10-18T12:16:37.368Z,14.80
2018-10-18T12:19:06.143Z,14.90
2018-10-18T12:21:34.451Z,14.90
2018-10-18T12:24:02.606Z,14.90
2018-10-18T12:26:30.820Z,15.00
2018-10-18T12:28:59.221Z,14.90
2018-10-18T12:31:27.398Z,15.00
2018-10-18T12:33:55.606Z,15.00
2018-10-18T12:36:24.044Z,15.10
2018-10-18T12:38:52.219Z,15.00
2018-10-18T12:41:20.677Z,15.00
2018-10-18T12:43:48.714Z,15.00
2018-10-18T12:46:16.851Z,15.00
2018-10-18T12:48:45.205Z,15.00
2018-10-18T12:51:13.319Z,14.90
2018-10-18T12:56:16.323Z,15.40
2018-10-18T12:58:44.611Z,15.30
2018-10-18T13:01:12.829Z,15.30
2018-10-18T13:03:41.065Z,15.20
2018-10-18T13:06:09.227Z,15.10
2018-10-18T13:08:37.643Z,15.00
2018-10-18T13:11:05.924Z,15.10
2018-10-18T13:13:34.188Z,14.90
2018-10-18T13:16:02.389Z,14.90
2018-10-18T13:18:30.480Z,14.90
2018-10-18T13:20:58.644Z,14.80
2018-10-18T13:23:26.874Z,14.70
2018-10-18T13:25:55.140Z,14.70
2018-10-18T13:28:23.326Z,14.60
2018-10-18T13:30:51.471Z,14.70
2018-10-18T13:33:19.703Z,14.80
2018-10-18T13:35:47.985Z,14.80
2018-10-18T13:38:16.191Z,14.70
2018-10-18T13:40:44.400Z,14.80
2018-10-18T13:43:12.561Z,14.70
2018-10-18T13:45:41.398Z,14.60
2018-10-18T13:48:09.645Z,14.60
2018-10-18T13:50:37.808Z,14.70
2018-10-18T13:53:06.861Z,14.80
2018-10-18T13:55:35.083Z,14.80
2018-10-18T13:58:03.788Z,14.70
2018-10-18T14:00:32.044Z,14.80
2018-10-18T14:03:00.262Z,14.70
2018-10-18T14:05:28.814Z,14.70
2018-10-18T14:07:57.378Z,14.80
2018-10-18T14:10:25.567Z,14.80
2018-10-18T14:12:54.320Z,14.80
2018-10-18T14:15:22.463Z,15.00
2018-10-18T14:17:54.189Z,14.90
2018-10-18T14:20:22.308Z,15.10
2018-10-18T14:22:50.599Z,14.90
2018-10-18T14:25:18.745Z,14.90
2018-10-18T14:27:46.996Z,14.70
2018-10-18T14:30:15.294Z,14.70
2018-10-18T14:32:43.492Z,14.90
2018-10-18T14:35:12.949Z,14.80
2018-10-18T14:37:41.342Z,14.80
2018-10-18T14:40:11.317Z,14.90
2018-10-18T14:42:39.645Z,14.80
2018-10-18T14:45:08.584Z,14.90
2018-10-18T14:47:36.727Z,14.80
2018-10-18T14:50:10.303Z,14.90
2018-10-18T14:52:39.088Z,14.90
2018-10-18T14:55:07.273Z,14.90
2018-10-18T14:57:35.251Z,14.90
2018-10-18T15:00:03.203Z,15.10
2018-10-18T15:02:31.171Z,15.20
2018-10-18T15:04:59.204Z,15.30
2018-10-18T15:07:27.083Z,14.90
2018-10-18T15:09:55.068Z,15.00
2018-10-18T15:12:23.060Z,15.00
2018-10-18T15:14:51.058Z,15.00
2018-10-18T15:17:19.159Z,14.90
2018-10-18T15:19:47.116Z,14.70
2018-10-18T15:22:15.119Z,14.90
2018-10-18T15:24:43.226Z,15.10
2018-10-18T15:27:11.567Z,15.20
2018-10-18T15:29:39.508Z,15.10
2018-10-18T15:32:07.648Z,15.10
2018-10-18T15:34:35.546Z,15.10
2018-10-18T15:37:03.516Z,15.10
2018-10-18T15:39:31.613Z,15.20
2018-10-18T15:41:59.611Z,15.20
2018-10-18T15:44:27.584Z,15.30
2018-10-18T15:46:55.921Z,15.30
2018-10-18T15:49:23.864Z,15.20
2018-10-18T15:51:51.864Z,15.30
2018-10-18T15:54:19.984Z,15.20
2018-10-18T15:56:47.859Z,15.10
2018-10-18T15:59:15.872Z,15.00
2018-10-18T16:01:43.747Z,14.90
2018-10-18T16:04:14.787Z,14.80
2018-10-18T16:06:42.739Z,14.90
2018-10-18T16:09:12.750Z,15.00
2018-10-18T16:11:40.731Z,15.00
2018-10-18T16:14:08.849Z,15.00
2018-10-18T16:16:36.771Z,15.00
2018-10-18T16:19:05.264Z,15.00
2018-10-18T16:21:33.232Z,15.10
2018-10-18T16:24:01.911Z,15.10
2018-10-18T16:26:30.109Z,15.00
2018-10-18T16:28:58.092Z,14.90
2018-10-18T16:31:26.099Z,15.00
2018-10-18T16:33:54.135Z,15.00
2018-10-18T16:36:22.259Z,14.90
2018-10-18T16:38:50.263Z,15.00
2018-10-18T16:41:18.361Z,14.90
2018-10-18T16:43:46.215Z,15.00
2018-10-18T16:46:14.261Z,14.80
2018-10-18T16:48:42.123Z,14.90
2018-10-18T16:51:13.963Z,14.80
2018-10-18T16:53:41.929Z,14.80
2018-10-18T16:56:09.959Z,14.90
2018-10-18T16:58:37.863Z,14.90
2018-10-18T17:01:05.895Z,14.90
2018-10-18T17:03:33.856Z,14.80
2018-10-18T17:06:01.883Z,14.80
2018-10-18T17:08:29.815Z,14.70
2018-10-18T17:10:57.815Z,14.60
2018-10-18T17:13:25.783Z,14.60
2018-10-18T17:15:53.941Z,14.80
2018-10-18T17:18:22.153Z,14.70
2018-10-18T17:20:50.203Z,14.60
2018-10-18T17:23:18.101Z,14.50
2018-10-18T17:25:47.690Z,14.50
2018-10-18T17:28:16.819Z,14.60
2018-10-18T17:30:44.808Z,14.50
2018-10-18T17:33:14.659Z,14.40
2018-10-18T17:35:44.205Z,14.50
2018-10-18T17:38:12.745Z,14.50
2018-10-18T17:40:40.934Z,14.30
2018-10-18T17:43:09.763Z,14.20
2018-10-18T17:45:39.484Z,14.30
2018-10-18T17:48:07.517Z,14.20
2018-10-18T17:50:36.124Z,14.30
2018-10-18T17:53:04.185Z,14.50
2018-10-18T17:55:32.063Z,14.40
2018-10-18T17:58:00.081Z,14.30
2018-10-18T18:00:28.141Z,14.30
2018-10-18T18:02:56.094Z,14.50
2018-10-18T18:05:24.127Z,14.60
2018-10-18T18:07:52.175Z,14.60
2018-10-18T18:10:20.117Z,14.50
2018-10-18T18:12:48.088Z,14.30
2018-10-18T18:15:16.099Z,14.30
2018-10-18T18:17:44.079Z,14.20
2018-10-18T18:20:12.843Z,14.20
2018-10-18T18:22:40.986Z,14.10
2018-10-18T18:25:10.247Z,14.10
2018-10-18T18:27:38.299Z,14.10
2018-10-18T18:30:08.727Z,14.20
2018-10-18T18:32:36.708Z,14.40
2018-10-18T18:35:05.091Z,14.20
2018-10-18T18:37:33.108Z,14.30
2018-10-18T18:40:01.290Z,14.40
2018-10-18T18:42:29.441Z,14.30
2018-10-18T18:45:03.054Z,14.30
2018-10-18T18:47:31.093Z,14.30
2018-10-18T18:49:59.012Z,14.10
2018-10-18T18:52:28.615Z,14.10
2018-10-18T18:54:56.699Z,14.00
2018-10-18T18:57:24.764Z,13.90
2018-10-18T18:59:52.731Z,14.00
2018-10-18T19:02:20.718Z,14.00
2018-10-18T19:04:48.707Z,14.00
2018-10-18T19:07:16.758Z,14.10
2018-10-18T19:09:44.707Z,14.10
2018-10-18T19:12:12.754Z,14.10
2018-10-18T19:14:40.987Z,14.00
2018-10-18T19:17:08.967Z,14.10
2018-10-18T19:19:37.623Z,14.10
2018-10-18T19:22:06.066Z,14.10
2018-10-18T19:24:34.024Z,14.00
2018-10-18T19:27:04.181Z,14.00
2018-10-18T19:29:32.148Z,13.90
2018-10-18T19:32:00.395Z,13.90
2018-10-18T19:34:28.321Z,14.10
2018-10-18T19:36:56.287Z,14.00
2018-10-18T19:39:24.252Z,14.10
2018-10-18T19:41:52.225Z,14.10
2018-10-18T19:44:20.172Z,14.00
2018-10-18T19:46:48.119Z,14.00
2018-10-18T19:49:16.055Z,14.00
2018-10-18T19:51:44.007Z,14.00
2018-10-18T19:54:12.036Z,14.10
2018-10-18T19:56:40.000Z,13.90
2018-10-18T19:59:07.966Z,13.80
2018-10-18T20:01:36.012Z,13.70
2018-10-18T20:04:03.987Z,13.60
2018-10-18T20:06:31.951Z,13.60
2018-10-18T20:08:59.962Z,13.70
2018-10-18T20:11:27.932Z,13.70
2018-10-18T20:13:56.063Z,13.90
2018-10-18T20:16:24.035Z,14.00
2018-10-18T20:18:52.021Z,14.10
2018-10-18T20:21:19.974Z,14.10
2018-10-18T20:23:47.983Z,13.90
2018-10-18T20:26:16.172Z,13.90
2018-10-18T20:28:43.915Z,13.80
2018-10-18T20:31:11.863Z,13.90
2018-10-18T20:33:39.888Z,13.80
2018-10-18T20:36:07.848Z,13.90
2018-10-18T20:38:35.896Z,13.80
2018-10-18T20:41:03.862Z,13.90
2018-10-18T20:43:31.796Z,14.00
2018-10-18T20:45:59.875Z,14.00
2018-10-18T20:48:27.767Z,14.10
2018-10-18T20:50:55.761Z,14.10
2018-10-18T20:53:24.320Z,14.10
2018-10-18T20:55:52.376Z,14.00
2018-10-18T20:58:21.293Z,13.90
2018-10-18T21:00:49.279Z,14.10
2018-10-18T21:03:17.265Z,14.10
2018-10-18T21:05:45.223Z,14.10
2018-10-18T21:08:13.657Z,14.20
2018-10-18T21:10:41.655Z,13.90
2018-10-18T21:13:09.671Z,13.90
2018-10-18T21:15:37.576Z,14.10
2018-10-18T21:18:05.641Z,14.30
2018-10-18T21:20:33.527Z,14.20
2018-10-18T21:23:01.563Z,14.20
2018-10-18T21:25:29.495Z,13.90
2018-10-18T21:27:57.440Z,14.00
2018-10-18T21:30:26.223Z,13.80
2018-10-18T21:32:54.251Z,13.80
2018-10-18T21:35:22.163Z,13.80
2018-10-18T21:37:50.099Z,13.60
2018-10-18T21:40:21.202Z,13.60
2018-10-18T21:42:49.243Z,13.50
2018-10-18T21:45:17.688Z,13.70
2018-10-18T21:47:45.729Z,13.80
2018-10-18T21:50:13.693Z,13.70
2018-10-18T21:52:41.707Z,13.70
2018-10-18T21:55:09.710Z,13.70
2018-10-18T21:57:37.696Z,13.60
2018-10-18T22:00:07.242Z,13.60
2018-10-18T22:02:35.247Z,13.70
2018-10-18T22:05:03.287Z,13.60
2018-10-18T22:07:31.183Z,13.60
2018-10-18T22:09:59.146Z,13.40
2018-10-18T22:12:27.131Z,13.40
2018-10-18T22:14:55.107Z,13.50
2018-10-18T22:17:23.036Z,13.40
2018-10-18T22:19:51.039Z,13.30
2018-10-18T22:22:18.970Z,13.30
2018-10-18T22:24:46.928Z,13.40
2018-10-18T22:27:15.403Z,13.30
2018-10-18T22:29:43.286Z,13.20
2018-10-18T22:32:11.277Z,13.30
2018-10-18T22:34:39.247Z,13.40
2018-10-18T22:37:07.216Z,13.30
2018-10-18T22:39:35.159Z,13.30
2018-10-18T22:42:03.120Z,13.40
2018-10-18T22:44:31.083Z,13.40
2018-10-18T22:46:59.103Z,13.30
2018-10-18T22:49:26.971Z,13.20
2018-10-18T22:51:55.172Z,13.10
2018-10-18T22:54:23.179Z,13.10
2018-10-18T22:56:51.159Z,13.20
2018-10-18T22:59:19.172Z,13.10
2018-10-18T23:01:47.117Z,13.00
2018-10-18T23:04:15.096Z,13.20
2018-10-18T23:06:43.050Z,13.00
2018-10-18T23:09:12.315Z,13.20
2018-10-18T23:11:40.335Z,13.10
2018-10-18T23:14:09.379Z,13.10
2018-10-18T23:16:38.096Z,12.80
2018-10-18T23:19:06.614Z,12.60
2018-10-18T23:21:34.659Z,12.80
2018-10-18T23:24:02.600Z,12.80
2018-10-18T23:26:33.823Z,12.90
2018-10-18T23:29:01.890Z,12.80
2018-10-18T23:31:29.790Z,12.90
2018-10-18T23:33:57.730Z,12.70
2018-10-18T23:36:25.743Z,12.80
2018-10-18T23:38:53.754Z,12.50
2018-10-18T23:41:21.715Z,12.70
2018-10-18T23:43:49.655Z,12.70
2018-10-18T23:46:17.648Z,12.70
2018-10-18T23:48:45.687Z,12.70
2018-10-18T23:51:13.751Z,12.70
2018-10-18T23:53:41.627Z,12.80
2018-10-18T23:56:09.619Z,12.90
2018-10-18T23:58:37.574Z,12.90
